sensor_id;sensor_type;location;lat;lon;timestamp;pressure;altitude;pressure_sealevel;temperature;humidity
17764;BME280;22245;52.832;13.816;2022-07-03T00:00:52;101986.75;;;17.38;63.45
17764;BME280;22245;52.832;13.816;2022-07-03T00:04:14;101979.97;;;17.34;63.22
17764;BME280;22245;52.832;13.816;2022-07-03T00:07:36;101981.41;;;17.28;63.46
17764;BME280;22245;52.832;13.816;2022-07-03T00:10:59;101980.84;;;17.25;64.01
17764;BME280;22245;52.832;13.816;2022-07-03T00:14:22;101977.75;;;17.19;63.74
17764;BME280;22245;52.832;13.816;2022-07-03T00:17:44;101973.78;;;17.14;64.04
17764;BME280;22245;52.832;13.816;2022-07-03T00:21:09;101970.53;;;17.10;63.93
17764;BME280;22245;52.832;13.816;2022-07-03T00:24:38;101971.81;;;17.06;64.07
17764;BME280;22245;52.832;13.816;2022-07-03T00:28:03;101968.56;;;17.02;64.20
17764;BME280;22245;52.832;13.816;2022-07-03T00:31:28;101967.00;;;17.00;64.55
17764;BME280;22245;52.832;13.816;2022-07-03T00:34:51;101961.03;;;16.96;64.71
17764;BME280;22245;52.832;13.816;2022-07-03T00:38:13;101962.16;;;16.93;64.49
17764;BME280;22245;52.832;13.816;2022-07-03T00:41:35;101960.75;;;16.89;64.55
17764;BME280;22245;52.832;13.816;2022-07-03T00:44:59;101957.50;;;16.86;64.58
17764;BME280;22245;52.832;13.816;2022-07-03T00:48:23;101951.38;;;16.84;64.52
17764;BME280;22245;52.832;13.816;2022-07-03T00:51:51;101953.25;;;16.83;64.44
17764;BME280;22245;52.832;13.816;2022-07-03T00:55:15;101946.44;;;16.79;64.42
17764;BME280;22245;52.832;13.816;2022-07-03T00:58:38;101950.25;;;16.76;64.79
17764;BME280;22245;52.832;13.816;2022-07-03T01:02:03;101949.84;;;16.71;64.75
17764;BME280;22245;52.832;13.816;2022-07-03T01:05:32;101951.00;;;16.69;64.69
17764;BME280;22245;52.832;13.816;2022-07-03T01:09:00;101953.69;;;16.69;64.81
17764;BME280;22245;52.832;13.816;2022-07-03T01:12:38;101943.19;;;16.66;64.95
17764;BME280;22245;52.832;13.816;2022-07-03T01:16:07;101938.09;;;16.62;65.13
17764;BME280;22245;52.832;13.816;2022-07-03T01:19:37;101944.63;;;16.60;64.75
17764;BME280;22245;52.832;13.816;2022-07-03T01:23:16;101941.22;;;16.58;65.04
17764;BME280;22245;52.832;13.816;2022-07-03T01:26:45;101929.88;;;16.54;65.36
17764;BME280;22245;52.832;13.816;2022-07-03T01:30:09;101918.59;;;16.51;65.20
17764;BME280;22245;52.832;13.816;2022-07-03T01:33:32;101923.97;;;16.51;65.09
17764;BME280;22245;52.832;13.816;2022-07-03T01:36:57;101917.59;;;16.52;65.35
17764;BME280;22245;52.832;13.816;2022-07-03T01:40:23;101917.31;;;16.55;64.72
17764;BME280;22245;52.832;13.816;2022-07-03T01:43:48;101912.47;;;16.58;64.54
17764;BME280;22245;52.832;13.816;2022-07-03T01:47:10;101914.03;;;16.61;64.60
17764;BME280;22245;52.832;13.816;2022-07-03T01:50:33;101914.59;;;16.64;64.49
17764;BME280;22245;52.832;13.816;2022-07-03T01:53:54;101912.59;;;16.67;64.40
17764;BME280;22245;52.832;13.816;2022-07-03T01:57:16;101915.16;;;16.68;64.47
17764;BME280;22245;52.832;13.816;2022-07-03T02:00:46;101911.34;;;16.71;64.23
17764;BME280;22245;52.832;13.816;2022-07-03T02:04:13;101912.19;;;16.71;64.37
17764;BME280;22245;52.832;13.816;2022-07-03T02:07:40;101906.69;;;16.73;64.34
17764;BME280;22245;52.832;13.816;2022-07-03T02:11:14;101915.47;;;16.75;64.09
17764;BME280;22245;52.832;13.816;2022-07-03T02:14:37;101909.78;;;16.78;64.22
17764;BME280;22245;52.832;13.816;2022-07-03T02:18:09;101915.16;;;16.78;64.15
17764;BME280;22245;52.832;13.816;2022-07-03T02:21:32;101910.63;;;16.78;63.86
17764;BME280;22245;52.832;13.816;2022-07-03T02:25:00;101911.78;;;16.76;64.02
17764;BME280;22245;52.832;13.816;2022-07-03T02:28:30;101912.06;;;16.73;63.98
17764;BME280;22245;52.832;13.816;2022-07-03T02:31:59;101914.03;;;16.71;63.91
17764;BME280;22245;52.832;13.816;2022-07-03T02:35:25;101910.66;;;16.69;63.55
17764;BME280;22245;52.832;13.816;2022-07-03T02:38:52;101917.84;;;16.68;64.16
17764;BME280;22245;52.832;13.816;2022-07-03T02:42:25;101909.09;;;16.66;64.12
17764;BME280;22245;52.832;13.816;2022-07-03T02:45:51;101905.69;;;16.64;64.58
17764;BME280;22245;52.832;13.816;2022-07-03T02:49:30;101909.38;;;16.63;64.38
17764;BME280;22245;52.832;13.816;2022-07-03T02:53:04;101912.34;;;16.60;64.92
17764;BME280;22245;52.832;13.816;2022-07-03T02:56:32;101901.00;;;16.56;64.91
17764;BME280;22245;52.832;13.816;2022-07-03T02:59:57;101907.81;;;16.51;66.09
17764;BME280;22245;52.832;13.816;2022-07-03T03:03:26;101905.13;;;16.41;66.02
17764;BME280;22245;52.832;13.816;2022-07-03T03:06:53;101901.31;;;16.33;66.74
17764;BME280;22245;52.832;13.816;2022-07-03T03:10:18;101908.22;;;16.26;66.82
17764;BME280;22245;52.832;13.816;2022-07-03T03:13:41;101904.56;;;16.17;67.13
17764;BME280;22245;52.832;13.816;2022-07-03T03:17:16;101913.41;;;16.08;67.42
17764;BME280;22245;52.832;13.816;2022-07-03T03:20:39;101903.38;;;16.00;68.51
17764;BME280;22245;52.832;13.816;2022-07-03T03:24:02;101900.41;;;15.94;68.82
17764;BME280;22245;52.832;13.816;2022-07-03T03:27:25;101902.66;;;15.88;68.92
17764;BME280;22245;52.832;13.816;2022-07-03T03:30:48;101905.59;;;15.85;68.93
17764;BME280;22245;52.832;13.816;2022-07-03T03:34:11;101913.75;;;15.84;69.50
17764;BME280;22245;52.832;13.816;2022-07-03T03:37:34;101905.00;;;15.82;69.55
17764;BME280;22245;52.832;13.816;2022-07-03T03:40:56;101909.81;;;15.78;69.93
17764;BME280;22245;52.832;13.816;2022-07-03T03:44:20;101903.72;;;15.76;69.78
17764;BME280;22245;52.832;13.816;2022-07-03T03:47:41;101908.22;;;15.75;70.52
17764;BME280;22245;52.832;13.816;2022-07-03T03:51:04;101908.22;;;15.75;69.77
17764;BME280;22245;52.832;13.816;2022-07-03T03:54:27;101911.34;;;15.81;70.50
17764;BME280;22245;52.832;13.816;2022-07-03T03:57:49;101905.69;;;15.84;69.92
17764;BME280;22245;52.832;13.816;2022-07-03T04:01:12;101907.03;;;15.89;69.19
17764;BME280;22245;52.832;13.816;2022-07-03T04:04:34;101893.91;;;15.96;69.50
17764;BME280;22245;52.832;13.816;2022-07-03T04:07:56;101895.06;;;16.03;68.87
17764;BME280;22245;52.832;13.816;2022-07-03T04:11:18;101898.88;;;16.11;69.14
17764;BME280;22245;52.832;13.816;2022-07-03T04:14:40;101899.28;;;16.16;68.41
17764;BME280;22245;52.832;13.816;2022-07-03T04:18:04;101891.53;;;16.23;68.78
17764;BME280;22245;52.832;13.816;2022-07-03T04:21:25;101891.84;;;16.29;68.19
17764;BME280;22245;52.832;13.816;2022-07-03T04:24:47;101890.28;;;16.37;68.03
17764;BME280;22245;52.832;13.816;2022-07-03T04:28:10;101889.41;;;16.46;67.74
17764;BME280;22245;52.832;13.816;2022-07-03T04:31:40;101877.25;;;16.52;67.32
17764;BME280;22245;52.832;13.816;2022-07-03T04:35:04;101879.22;;;16.59;67.11
17764;BME280;22245;52.832;13.816;2022-07-03T04:38:26;101883.88;;;16.67;67.09
17764;BME280;22245;52.832;13.816;2022-07-03T04:41:49;101882.19;;;16.76;66.36
17764;BME280;22245;52.832;13.816;2022-07-03T04:45:11;101882.31;;;16.84;65.91
17764;BME280;22245;52.832;13.816;2022-07-03T04:48:33;101881.41;;;16.93;65.69
17764;BME280;22245;52.832;13.816;2022-07-03T04:51:56;101884.44;;;17.00;65.58
17764;BME280;22245;52.832;13.816;2022-07-03T04:55:18;101880.84;;;17.10;65.29
17764;BME280;22245;52.832;13.816;2022-07-03T04:58:39;101880.13;;;17.17;65.60
17764;BME280;22245;52.832;13.816;2022-07-03T05:02:02;101875.72;;;17.26;65.49
17764;BME280;22245;52.832;13.816;2022-07-03T05:05:24;101881.19;;;17.34;65.18
17764;BME280;22245;52.832;13.816;2022-07-03T05:08:46;101867.97;;;17.41;65.10
17764;BME280;22245;52.832;13.816;2022-07-03T05:12:08;101866.94;;;17.52;64.94
17764;BME280;22245;52.832;13.816;2022-07-03T05:15:30;101859.94;;;17.59;64.95
17764;BME280;22245;52.832;13.816;2022-07-03T05:18:52;101855.38;;;17.70;65.35
17764;BME280;22245;52.832;13.816;2022-07-03T05:22:13;101862.41;;;17.81;64.85
17764;BME280;22245;52.832;13.816;2022-07-03T05:25:38;101856.91;;;17.90;65.09
17764;BME280;22245;52.832;13.816;2022-07-03T05:29:00;101849.91;;;17.98;64.84
17764;BME280;22245;52.832;13.816;2022-07-03T05:32:22;101852.59;;;18.07;64.65
17764;BME280;22245;52.832;13.816;2022-07-03T05:35:43;101850.81;;;18.16;64.53
17764;BME280;22245;52.832;13.816;2022-07-03T05:39:05;101851.56;;;18.27;64.29
17764;BME280;22245;52.832;13.816;2022-07-03T05:42:45;101847.81;;;18.37;64.05
17764;BME280;22245;52.832;13.816;2022-07-03T05:46:07;101859.19;;;18.49;63.80
17764;BME280;22245;52.832;13.816;2022-07-03T05:49:29;101856.41;;;18.59;63.29
17764;BME280;22245;52.832;13.816;2022-07-03T05:52:51;101849.06;;;18.70;63.61
17764;BME280;22245;52.832;13.816;2022-07-03T05:56:13;101850.81;;;18.79;63.04
17764;BME280;22245;52.832;13.816;2022-07-03T05:59:36;101850.38;;;18.92;63.09
17764;BME280;22245;52.832;13.816;2022-07-03T06:02:57;101856.53;;;19.02;62.89
17764;BME280;22245;52.832;13.816;2022-07-03T06:06:19;101849.16;;;19.13;62.18
17764;BME280;22245;52.832;13.816;2022-07-03T06:09:41;101850.06;;;19.21;62.22
17764;BME280;22245;52.832;13.816;2022-07-03T06:13:03;101838.28;;;19.31;61.76
17764;BME280;22245;52.832;13.816;2022-07-03T06:16:26;101846.81;;;19.44;61.42
17764;BME280;22245;52.832;13.816;2022-07-03T06:19:48;101842.78;;;19.57;61.85
17764;BME280;22245;52.832;13.816;2022-07-03T06:23:10;101841.63;;;19.67;62.04
17764;BME280;22245;52.832;13.816;2022-07-03T06:26:51;101841.84;;;19.83;62.66
17764;BME280;22245;52.832;13.816;2022-07-03T06:30:13;101844.59;;;19.91;63.00
17764;BME280;22245;52.832;13.816;2022-07-03T06:33:36;101834.66;;;20.00;62.37
17764;BME280;22245;52.832;13.816;2022-07-03T06:36:58;101826.38;;;20.09;61.64
17764;BME280;22245;52.832;13.816;2022-07-03T06:40:20;101830.59;;;20.20;61.83
17764;BME280;22245;52.832;13.816;2022-07-03T06:43:49;101821.16;;;20.33;60.04
17764;BME280;22245;52.832;13.816;2022-07-03T06:47:11;101821.47;;;20.46;58.64
17764;BME280;22245;52.832;13.816;2022-07-03T06:50:34;101821.97;;;20.58;58.19
17764;BME280;22245;52.832;13.816;2022-07-03T06:53:56;101820.56;;;20.71;57.98
17764;BME280;22245;52.832;13.816;2022-07-03T06:57:17;101816.50;;;20.83;53.69
17764;BME280;22245;52.832;13.816;2022-07-03T07:00:39;101815.97;;;20.96;51.56
17764;BME280;22245;52.832;13.816;2022-07-03T07:04:01;101802.06;;;21.07;51.22
17764;BME280;22245;52.832;13.816;2022-07-03T07:07:29;101795.91;;;21.22;51.27
17764;BME280;22245;52.832;13.816;2022-07-03T07:10:51;101796.38;;;21.34;50.87
17764;BME280;22245;52.832;13.816;2022-07-03T07:14:13;101785.44;;;21.50;49.16
17764;BME280;22245;52.832;13.816;2022-07-03T07:17:35;101785.75;;;21.64;48.74
17764;BME280;22245;52.832;13.816;2022-07-03T07:20:59;101770.91;;;21.75;48.30
17764;BME280;22245;52.832;13.816;2022-07-03T07:24:22;101769.28;;;21.89;47.89
17764;BME280;22245;52.832;13.816;2022-07-03T07:27:44;101773.28;;;22.01;47.37
17764;BME280;22245;52.832;13.816;2022-07-03T07:31:06;101773.66;;;22.13;46.96
17764;BME280;22245;52.832;13.816;2022-07-03T07:34:27;101771.34;;;22.25;46.88
17764;BME280;22245;52.832;13.816;2022-07-03T07:37:49;101778.22;;;22.36;45.73
17764;BME280;22245;52.832;13.816;2022-07-03T07:41:13;101762.69;;;22.45;45.77
17764;BME280;22245;52.832;13.816;2022-07-03T07:44:34;101760.94;;;22.52;46.36
17764;BME280;22245;52.832;13.816;2022-07-03T07:47:56;101763.19;;;22.63;45.52
17764;BME280;22245;52.832;13.816;2022-07-03T07:51:18;101753.75;;;22.74;44.83
17764;BME280;22245;52.832;13.816;2022-07-03T07:54:40;101754.78;;;22.88;44.19
17764;BME280;22245;52.832;13.816;2022-07-03T07:58:03;101748.19;;;22.97;44.08
17764;BME280;22245;52.832;13.816;2022-07-03T08:01:24;101749.13;;;23.05;44.10
17764;BME280;22245;52.832;13.816;2022-07-03T08:05:04;101752.19;;;23.17;43.97
17764;BME280;22245;52.832;13.816;2022-07-03T08:08:48;101758.41;;;23.25;43.27
17764;BME280;22245;52.832;13.816;2022-07-03T08:12:10;101757.63;;;23.32;42.56
17764;BME280;22245;52.832;13.816;2022-07-03T08:15:34;101754.78;;;23.40;42.21
17764;BME280;22245;52.832;13.816;2022-07-03T08:18:56;101758.06;;;23.50;42.56
17764;BME280;22245;52.832;13.816;2022-07-03T08:22:18;101756.91;;;23.60;42.00
17764;BME280;22245;52.832;13.816;2022-07-03T08:25:40;101755.09;;;23.67;41.76
17764;BME280;22245;52.832;13.816;2022-07-03T08:29:03;101745.97;;;23.75;42.39
17764;BME280;22245;52.832;13.816;2022-07-03T08:32:26;101748.72;;;23.81;41.66
17764;BME280;22245;52.832;13.816;2022-07-03T08:35:48;101747.13;;;23.87;41.53
17764;BME280;22245;52.832;13.816;2022-07-03T08:39:10;101756.16;;;23.94;41.01
17764;BME280;22245;52.832;13.816;2022-07-03T08:42:32;101750.16;;;23.99;40.30
17764;BME280;22245;52.832;13.816;2022-07-03T08:45:58;101742.25;;;24.04;39.90
17764;BME280;22245;52.832;13.816;2022-07-03T08:49:22;101738.09;;;24.08;40.19
17764;BME280;22245;52.832;13.816;2022-07-03T08:52:44;101751.78;;;24.15;40.72
17764;BME280;22245;52.832;13.816;2022-07-03T08:56:07;101745.94;;;24.18;40.17
17764;BME280;22245;52.832;13.816;2022-07-03T08:59:34;101744.09;;;24.25;40.56
17764;BME280;22245;52.832;13.816;2022-07-03T09:02:59;101753.38;;;24.31;39.85
17764;BME280;22245;52.832;13.816;2022-07-03T09:06:23;101763.00;;;24.34;40.20
17764;BME280;22245;52.832;13.816;2022-07-03T09:09:44;101738.56;;;24.40;39.29
17764;BME280;22245;52.832;13.816;2022-07-03T09:13:07;101733.75;;;24.42;39.88
17764;BME280;22245;52.832;13.816;2022-07-03T09:16:29;101724.78;;;24.49;39.39
17764;BME280;22245;52.832;13.816;2022-07-03T09:19:51;101729.81;;;24.52;39.66
17764;BME280;22245;52.832;13.816;2022-07-03T09:23:16;101726.50;;;24.56;39.68
17764;BME280;22245;52.832;13.816;2022-07-03T09:26:50;101727.56;;;24.62;39.28
17764;BME280;22245;52.832;13.816;2022-07-03T09:30:12;101709.59;;;24.68;40.01
17764;BME280;22245;52.832;13.816;2022-07-03T09:33:34;101712.16;;;24.76;39.50
17764;BME280;22245;52.832;13.816;2022-07-03T09:36:56;101712.22;;;24.83;38.94
17764;BME280;22245;52.832;13.816;2022-07-03T09:40:20;101707.00;;;24.88;39.34
17764;BME280;22245;52.832;13.816;2022-07-03T09:43:43;101712.88;;;24.92;39.74
17764;BME280;22245;52.832;13.816;2022-07-03T09:47:13;101707.66;;;24.97;38.17
17764;BME280;22245;52.832;13.816;2022-07-03T09:50:35;101698.47;;;25.05;38.52
17764;BME280;22245;52.832;13.816;2022-07-03T09:53:59;101698.88;;;25.08;38.27
17764;BME280;22245;52.832;13.816;2022-07-03T09:57:22;101700.59;;;25.16;38.58
17764;BME280;22245;52.832;13.816;2022-07-03T10:00:46;101696.22;;;25.22;37.91
17764;BME280;22245;52.832;13.816;2022-07-03T10:04:13;101695.38;;;25.28;38.44
17764;BME280;22245;52.832;13.816;2022-07-03T10:07:49;101694.31;;;25.36;37.61
17764;BME280;22245;52.832;13.816;2022-07-03T10:11:12;101672.75;;;25.41;36.94
17764;BME280;22245;52.832;13.816;2022-07-03T10:14:35;101683.25;;;25.44;37.22
17764;BME280;22245;52.832;13.816;2022-07-03T10:17:59;101685.38;;;25.49;36.86
17764;BME280;22245;52.832;13.816;2022-07-03T10:21:21;101683.06;;;25.52;37.09
17764;BME280;22245;52.832;13.816;2022-07-03T10:24:43;101696.91;;;25.57;37.54
17764;BME280;22245;52.832;13.816;2022-07-03T10:28:10;101692.94;;;25.60;36.64
17764;BME280;22245;52.832;13.816;2022-07-03T10:31:34;101689.38;;;25.66;36.75
17764;BME280;22245;52.832;13.816;2022-07-03T10:34:56;101673.41;;;25.70;36.66
17764;BME280;22245;52.832;13.816;2022-07-03T10:38:32;101675.53;;;25.75;37.04
17764;BME280;22245;52.832;13.816;2022-07-03T10:41:57;101670.06;;;25.81;35.54
17764;BME280;22245;52.832;13.816;2022-07-03T10:45:36;101664.81;;;25.86;35.80
17764;BME280;22245;52.832;13.816;2022-07-03T10:49:04;101655.97;;;25.91;36.16
17764;BME280;22245;52.832;13.816;2022-07-03T10:52:26;101651.56;;;25.97;35.09
17764;BME280;22245;52.832;13.816;2022-07-03T10:56:01;101652.63;;;26.03;34.95
17764;BME280;22245;52.832;13.816;2022-07-03T11:00:02;101643.59;;;26.09;35.26
17764;BME280;22245;52.832;13.816;2022-07-03T11:03:51;101637.69;;;26.12;35.45
17764;BME280;22245;52.832;13.816;2022-07-03T11:07:14;101636.88;;;26.18;35.69
17764;BME280;22245;52.832;13.816;2022-07-03T11:10:37;101638.13;;;26.22;36.07
17764;BME280;22245;52.832;13.816;2022-07-03T11:14:18;101636.00;;;26.24;35.53
17764;BME280;22245;52.832;13.816;2022-07-03T11:18:07;101624.22;;;26.30;35.80
17764;BME280;22245;52.832;13.816;2022-07-03T11:21:33;101618.75;;;26.37;34.75
17764;BME280;22245;52.832;13.816;2022-07-03T11:24:59;101617.88;;;26.43;34.72
17764;BME280;22245;52.832;13.816;2022-07-03T11:28:52;101617.00;;;26.50;34.45
17764;BME280;22245;52.832;13.816;2022-07-03T11:32:48;101611.75;;;26.55;34.62
17764;BME280;22245;52.832;13.816;2022-07-03T11:36:12;101605.41;;;26.61;34.25
17764;BME280;22245;52.832;13.816;2022-07-03T11:39:47;101597.59;;;26.65;33.94
17764;BME280;22245;52.832;13.816;2022-07-03T11:43:10;101611.44;;;26.70;35.17
17764;BME280;22245;52.832;13.816;2022-07-03T11:46:33;101594.66;;;26.73;34.50
17764;BME280;22245;52.832;13.816;2022-07-03T11:49:57;101595.88;;;26.77;33.86
17764;BME280;22245;52.832;13.816;2022-07-03T11:53:24;101604.47;;;26.81;34.36
17764;BME280;22245;52.832;13.816;2022-07-03T11:56:46;101605.72;;;26.85;35.07
17764;BME280;22245;52.832;13.816;2022-07-03T12:00:09;101587.22;;;26.87;34.24
17764;BME280;22245;52.832;13.816;2022-07-03T12:03:31;101584.06;;;26.90;33.80
17764;BME280;22245;52.832;13.816;2022-07-03T12:06:57;101590.97;;;26.93;35.10
17764;BME280;22245;52.832;13.816;2022-07-03T12:10:19;101584.84;;;26.97;34.91
17764;BME280;22245;52.832;13.816;2022-07-03T12:13:41;101576.41;;;26.99;33.59
17764;BME280;22245;52.832;13.816;2022-07-03T12:17:04;101575.75;;;27.04;33.62
17764;BME280;22245;52.832;13.816;2022-07-03T12:20:26;101575.06;;;27.08;33.60
17764;BME280;22245;52.832;13.816;2022-07-03T12:23:51;101574.44;;;27.13;33.08
17764;BME280;22245;52.832;13.816;2022-07-03T12:27:13;101562.59;;;27.19;33.18
17764;BME280;22245;52.832;13.816;2022-07-03T12:30:35;101560.25;;;27.23;32.39
17764;BME280;22245;52.832;13.816;2022-07-03T12:33:58;101561.69;;;27.25;33.41
17764;BME280;22245;52.832;13.816;2022-07-03T12:37:31;101555.56;;;27.30;32.94
17764;BME280;22245;52.832;13.816;2022-07-03T12:41:03;101549.44;;;27.35;33.75
17764;BME280;22245;52.832;13.816;2022-07-03T12:44:25;101558.41;;;27.42;33.88
17764;BME280;22245;52.832;13.816;2022-07-03T12:47:57;101549.53;;;27.47;32.12
17764;BME280;22245;52.832;13.816;2022-07-03T12:51:43;101541.75;;;27.50;32.38
17764;BME280;22245;52.832;13.816;2022-07-03T12:55:06;101539.78;;;27.57;32.52
17764;BME280;22245;52.832;13.816;2022-07-03T12:58:47;101538.25;;;27.62;32.69
17764;BME280;22245;52.832;13.816;2022-07-03T13:02:26;101535.47;;;27.68;32.07
17764;BME280;22245;52.832;13.816;2022-07-03T13:05:48;101530.38;;;27.72;32.00
17764;BME280;22245;52.832;13.816;2022-07-03T13:09:11;101529.69;;;27.77;32.37
17764;BME280;22245;52.832;13.816;2022-07-03T13:12:33;101527.94;;;27.82;32.48
17764;BME280;22245;52.832;13.816;2022-07-03T13:15:57;101522.63;;;27.87;32.07
17764;BME280;22245;52.832;13.816;2022-07-03T13:19:19;101520.03;;;27.93;32.45
17764;BME280;22245;52.832;13.816;2022-07-03T13:22:41;101507.53;;;27.97;31.10
17764;BME280;22245;52.832;13.816;2022-07-03T13:26:03;101503.53;;;27.99;30.88
17764;BME280;22245;52.832;13.816;2022-07-03T13:29:25;101504.94;;;28.02;31.08
17764;BME280;22245;52.832;13.816;2022-07-03T13:32:48;101505.94;;;28.08;31.86
17764;BME280;22245;52.832;13.816;2022-07-03T13:36:10;101510.59;;;28.07;32.16
17764;BME280;22245;52.832;13.816;2022-07-03T13:39:32;101509.28;;;28.10;31.95
17764;BME280;22245;52.832;13.816;2022-07-03T13:42:54;101501.69;;;28.12;32.66
17764;BME280;22245;52.832;13.816;2022-07-03T13:46:16;101490.50;;;28.13;31.02
17764;BME280;22245;52.832;13.816;2022-07-03T13:49:40;101499.97;;;28.17;31.74
17764;BME280;22245;52.832;13.816;2022-07-03T13:53:02;101498.44;;;28.22;32.39
17764;BME280;22245;52.832;13.816;2022-07-03T13:56:23;101496.28;;;28.24;31.22
17764;BME280;22245;52.832;13.816;2022-07-03T13:59:45;101498.34;;;28.28;31.50
17764;BME280;22245;52.832;13.816;2022-07-03T14:03:08;101487.75;;;28.32;31.98
17764;BME280;22245;52.832;13.816;2022-07-03T14:06:31;101480.72;;;28.36;30.74
17764;BME280;22245;52.832;13.816;2022-07-03T14:09:53;101486.59;;;28.40;30.82
17764;BME280;22245;52.832;13.816;2022-07-03T14:13:15;101471.59;;;28.42;30.86
17764;BME280;22245;52.832;13.816;2022-07-03T14:16:36;101476.63;;;28.45;30.69
17764;BME280;22245;52.832;13.816;2022-07-03T14:19:58;101478.03;;;28.48;30.45
17764;BME280;22245;52.832;13.816;2022-07-03T14:23:22;101484.50;;;28.54;30.24
17764;BME280;22245;52.832;13.816;2022-07-03T14:26:43;101466.25;;;28.59;30.35
17764;BME280;22245;52.832;13.816;2022-07-03T14:30:22;101472.72;;;28.65;31.39
17764;BME280;22245;52.832;13.816;2022-07-03T14:34:02;101462.94;;;28.69;30.78
17764;BME280;22245;52.832;13.816;2022-07-03T14:37:24;101461.41;;;28.73;29.64
17764;BME280;22245;52.832;13.816;2022-07-03T14:40:47;101455.31;;;28.71;30.69
17764;BME280;22245;52.832;13.816;2022-07-03T14:44:08;101462.47;;;28.72;30.70
17764;BME280;22245;52.832;13.816;2022-07-03T14:47:30;101460.59;;;28.73;30.88
17764;BME280;22245;52.832;13.816;2022-07-03T14:50:52;101456.06;;;28.79;31.43
17764;BME280;22245;52.832;13.816;2022-07-03T14:54:17;101445.59;;;28.87;30.55
17764;BME280;22245;52.832;13.816;2022-07-03T14:57:49;101444.66;;;28.94;30.57
17764;BME280;22245;52.832;13.816;2022-07-03T15:01:11;101437.75;;;29.03;29.80
17764;BME280;22245;52.832;13.816;2022-07-03T15:04:40;101432.63;;;29.07;30.29
17764;BME280;22245;52.832;13.816;2022-07-03T15:08:15;101447.28;;;29.12;30.16
17764;BME280;22245;52.832;13.816;2022-07-03T15:11:40;101442.13;;;29.16;30.38
17764;BME280;22245;52.832;13.816;2022-07-03T15:15:27;101437.50;;;29.16;31.45
17764;BME280;22245;52.832;13.816;2022-07-03T15:18:50;101443.22;;;29.15;32.42
17764;BME280;22245;52.832;13.816;2022-07-03T15:22:12;101432.72;;;29.12;31.51
17764;BME280;22245;52.832;13.816;2022-07-03T15:25:37;101433.22;;;29.09;31.79
17764;BME280;22245;52.832;13.816;2022-07-03T15:29:01;101431.19;;;29.04;32.62
17764;BME280;22245;52.832;13.816;2022-07-03T15:32:25;101428.09;;;29.00;32.72
17764;BME280;22245;52.832;13.816;2022-07-03T15:35:49;101429.16;;;28.99;33.40
17764;BME280;22245;52.832;13.816;2022-07-03T15:39:17;101422.59;;;29.00;32.80
17764;BME280;22245;52.832;13.816;2022-07-03T15:42:51;101423.91;;;29.10;32.83
17764;BME280;22245;52.832;13.816;2022-07-03T15:46:25;101414.13;;;29.26;31.73
17764;BME280;22245;52.832;13.816;2022-07-03T15:49:55;101418.66;;;29.44;31.59
17764;BME280;22245;52.832;13.816;2022-07-03T15:53:21;101410.25;;;29.63;30.71
17764;BME280;22245;52.832;13.816;2022-07-03T15:56:48;101399.19;;;29.86;29.82
17764;BME280;22245;52.832;13.816;2022-07-03T16:00:16;101402.44;;;30.12;29.51
17764;BME280;22245;52.832;13.816;2022-07-03T16:03:54;101400.66;;;30.35;29.75
17764;BME280;22245;52.832;13.816;2022-07-03T16:07:28;101399.19;;;30.61;28.19
17764;BME280;22245;52.832;13.816;2022-07-03T16:10:50;101397.59;;;30.83;27.67
17764;BME280;22245;52.832;13.816;2022-07-03T16:14:12;101379.69;;;31.02;27.74
17764;BME280;22245;52.832;13.816;2022-07-03T16:17:36;101386.34;;;31.24;27.47
17764;BME280;22245;52.832;13.816;2022-07-03T16:20:59;101387.38;;;31.40;27.97
17764;BME280;22245;52.832;13.816;2022-07-03T16:24:24;101390.50;;;31.48;27.87
17764;BME280;22245;52.832;13.816;2022-07-03T16:27:46;101382.13;;;31.60;27.36
17764;BME280;22245;52.832;13.816;2022-07-03T16:31:11;101377.66;;;31.76;26.96
17764;BME280;22245;52.832;13.816;2022-07-03T16:34:37;101372.00;;;31.88;27.34
17764;BME280;22245;52.832;13.816;2022-07-03T16:38:01;101363.81;;;31.99;27.24
17764;BME280;22245;52.832;13.816;2022-07-03T16:41:25;101368.06;;;32.12;26.56
17764;BME280;22245;52.832;13.816;2022-07-03T16:44:51;101362.59;;;32.17;26.63
17764;BME280;22245;52.832;13.816;2022-07-03T16:48:15;101356.88;;;32.24;26.81
17764;BME280;22245;52.832;13.816;2022-07-03T16:51:41;101359.19;;;32.32;26.59
17764;BME280;22245;52.832;13.816;2022-07-03T16:55:04;101358.66;;;32.35;26.87
17764;BME280;22245;52.832;13.816;2022-07-03T16:58:28;101360.88;;;32.38;26.67
17764;BME280;22245;52.832;13.816;2022-07-03T17:01:51;101357.06;;;32.44;26.52
17764;BME280;22245;52.832;13.816;2022-07-03T17:05:16;101357.38;;;32.48;26.41
17764;BME280;22245;52.832;13.816;2022-07-03T17:09:10;101352.97;;;32.47;26.71
17764;BME280;22245;52.832;13.816;2022-07-03T17:12:33;101353.25;;;32.51;26.77
17764;BME280;22245;52.832;13.816;2022-07-03T17:15:59;101354.09;;;32.51;26.33
17764;BME280;22245;52.832;13.816;2022-07-03T17:19:24;101354.88;;;32.46;26.54
17764;BME280;22245;52.832;13.816;2022-07-03T17:22:47;101355.13;;;32.40;26.16
17764;BME280;22245;52.832;13.816;2022-07-03T17:26:13;101357.81;;;32.34;25.96
17764;BME280;22245;52.832;13.816;2022-07-03T17:29:44;101352.56;;;32.33;26.83
17764;BME280;22245;52.832;13.816;2022-07-03T17:33:10;101342.59;;;32.27;26.21
17764;BME280;22245;52.832;13.816;2022-07-03T17:36:35;101342.66;;;32.32;26.05
17764;BME280;22245;52.832;13.816;2022-07-03T17:39:58;101354.81;;;32.36;26.37